Terminal Aerodrome Forecast
Issued by NWS

Home | Current Version | Previous Version | Text Only | Print | Product List | Glossary On
Versions: 1 2 3 4 5 6 7 8 9 10 11 12 13
000
FTUS45 KRIW 012326
TAFLND
TAF
KLND 012326Z 0200/0224 23013G24KT P6SM VCTS BKN110CB
     FM020200 22014KT P6SM BKN110
     FM020800 24007KT P6SM SCT110
     FM021500 23008G20KT P6SM SCT110
     FM022000 27010G20KT P6SM BKN110=

USA.gov is the U.S. government's official web portal to all federal, state and local government web resources and services.